Home > Products > Valid Products > MTR

000
SAUS44 KMAF 290114
MTRGDP
METAR KGDP 290051Z AUTO 23011KT 10SM CLR 28/M13 A3006 RMK AO2 SLP096
T02831133 $





000
SAUS44 KMAF 290054
MTR6R6
METAR K6R6 290053Z AUTO 12013G18KT 31/19 A2988 RMK AO1 SLP084
T03060189





000
SAUS44 KMAF 290014
MTRGDP
METAR KGDP 282351Z AUTO 26011KT 10SM CLR 30/M13 A3005 RMK AO2 SLP089
T03001128 10317 20256 56007 $





000
SAUS44 KMAF 282354
MTR6R6
METAR K6R6 282353Z AUTO 12015G21KT 32/19 A2987 RMK AO1 PK WND
10026/2312 SLP081 T03170194 10328 20272 55008





000
SAUS44 KMAF 282254
MTR6R6
METAR K6R6 282253Z AUTO 13011G24KT 32/19 A2987 RMK AO1 SLP080
T03170189





000
SAUS44 KMAF 282234
MTRGDP
SPECI KGDP 282212Z AUTO VRB04KT 10SM CLR 29/M13 A3006 RMK AO2 PK WND
23026/2159 WSHFT 2152 T02941128 $





000
SAUS44 KMAF 281914
MTRGDP
METAR KGDP 281851Z AUTO VRB05G14KT 10SM CLR 27/M11 A3011 RMK AO2
SLP112 T02721106 $





000
SAUS44 KMAF 281854
MTR6R6
METAR K6R6 281853Z AUTO 08012G18KT 29/20 A2993 RMK AO1 SLP101
T02890200





000
SAUS44 KMAF 281754
MTR6R6
METAR K6R6 281753Z AUTO 11009G17KT 27/20 A2996 RMK AO1 SLP111
T02720200 10272 20183 58004





000
SAUS44 KMAF 281614
MTRGDP
METAR KGDP 281551Z AUTO 24014KT 10SM CLR 23/M09 A3012 RMK AO2 SLP126
T02331089 $





000
SAUS44 KMAF 281354
MTR6R6
METAR K6R6 281353Z AUTO 05005KT 22/18 A2994 RMK AO1 SLP103 T02170178





000
SAUS44 KMAF 281214
MTRGDP
METAR KGDP 281151Z AUTO 21004KT 10SM CLR 17/M11 A3007 RMK AO2 SLP109
T01721106 10200 20156 53012 $





000
SAUS44 KMAF 281154
MTR6R6
METAR K6R6 281153Z AUTO 01007KT 18/16 A2989 RMK AO1 SLP087 T01830161
10217 20167 53011





000
SAUS44 KMAF 280954
MTR6R6
METAR K6R6 280953Z AUTO 01008KT 17/07 A2987 RMK AO1 SLP078 T01720072





000
SAUS44 KMAF 280914
MTRGDP
METAR KGDP 280851Z AUTO 18004KT 10SM CLR 18/M10 A3003 RMK AO2 SLP088
T01781100 50001 $





000
SAUS44 KMAF 280714
MTRGDP
METAR KGDP 280651Z AUTO 28005KT 10SM CLR 19/M09 A3003 RMK AO2 SLP087
T01891094 402670117 $





000
SAUS44 KMAF 280514
MTRGDP
METAR KGDP 280451Z AUTO 31009KT 10SM CLR 19/M11 A3003 RMK AO2 SLP093
T01941111 $





000
SAUS44 KMAF 280454
MTR6R6
METAR K6R6 280453Z AUTO 29005KT 21/M02 A2981 RMK AO1 SLP058
T02111017





000
SAUS44 KMAF 280254
MTR6R6
METAR K6R6 280253Z AUTO 30006KT 25/M05 A2978 RMK AO1 SLP045
T02501050 53020





000
SAUS44 KMAF 280016 COR
MTRGDP
METAR KGDP 272351Z AUTO 24026G35KT 10SM CLR 24/M11 A2992 RMK AO2 PK
WND 23035/2349 SLP065 T02391106 10267 20239 55001 $





000
SAUS44 KMAF 280015 COR
MTRGDP
METAR KGDP 272351Z AUTO 24026G35KT 10SM CLR 24/M11 A2992 RMK AO2 PK
WND 23035/2349 SLP065 T02391106 10267 20239 55001 $





000
SAUS44 KMAF 272354
MTR6R6
METAR K6R6 272353Z AUTO 26011G20KT 34/M09 A2972 RMK AO1 SLP024
T03391089 10350 20322 55011





000
SAUS44 KMAF 272214
MTRGDP
METAR KGDP 272151Z AUTO 25021G34KT 10SM CLR 26/M09 A2992 RMK AO2 PK
WND 23039/2101 SLP059 T02611089 $





000
SAUS44 KMAF 272155
MTR6R6
METAR K6R6 272153Z AUTO 25017G25KT 34/M08 A2973 RMK AO1 PK WND
22027/2110 SLP027 T03441078





000
SAUS44 KMAF 271854
MTR6R6
METAR K6R6 271853Z AUTO 24009G21KT 33/M05 A2979 RMK AO1 SLP048
T03331050





000
SAUS44 KMAF 271755
MTR6R6
METAR K6R6 271753Z AUTO 32/M03 A2981 RMK AO1 SLP055 T03221033 10328
20189 58009





000
SAUS44 KMAF 271615
MTRGDP
METAR KGDP 271551Z AUTO 25019G26KT 10SM CLR 21/M06 A2999 RMK AO2 PK
WND 24028/1530 SLP081 T02061056 $





000
SAUS44 KMAF 271254
MTR6R6
METAR K6R6 271253Z AUTO 27008KT 21/02 A2980 RMK AO1 SLP056 T02110017





000
SAUS44 KMAF 271215 COR
MTRGDP
METAR KGDP 271151Z AUTO 24009G17KT 10SM CLR 12/M11 A2996 RMK AO2 PK
WND 26031/1107 SLP074 T01171106 10189 20117 51014 $





000
SAUS44 KMAF 271214
MTRGDP
METAR KGDP 271151Z AUTO 24009G17KT 10SM CLR 12/M11 A2996 RMK AO2 PK
WND 26031/1107 SLP074 T01171106 10189 20117 51014 $





000
SAUS44 KMAF 271114
MTRGDP
METAR KGDP 271051Z AUTO 25015G28KT 10SM CLR 14/M11 A2994 RMK AO2 PK
WND 26029/1013 SLP061 T01441106 $





000
SAUS44 KMAF 270914
MTRGDP
METAR KGDP 270851Z AUTO 25028KT 10SM CLR 16/M12 A2991 RMK AO2 PK WND
27036/0829 SLP045 T01611122 55004 $





000
SAUS44 KMAF 270854
MTR6R6
METAR K6R6 270853Z AUTO 20011KT 21/16 A2969 RMK AO1 SLP014 T02110156
56012





000
SAUS44 KMAF 270715 COR
MTRGDP
METAR KGDP 270651Z AUTO 26025G34KT 10SM CLR 18/M12 A2992 RMK AO2 PK
WND 26038/0631 SLP048 T01781117 402890172 $





000
SAUS44 KMAF 270615 COR
MTRGDP
METAR KGDP 270551Z AUTO 27029G35KT 10SM CLR 19/M11 A2992 RMK AO2 PK
WND 28038/0458 SLP049 T01891111 10261 20189 50006 $





000
SAUS44 KMAF 270554
MTR6R6
METAR K6R6 270553Z AUTO 31006KT 23/17 A2973 RMK AO1 SLP025 T02280167
10300 20228 403720228 53007





000
SAUS44 KMAF 270515 COR
MTRGDP
METAR KGDP 270451Z AUTO 27024G36KT 10SM CLR 20/M12 A2992 RMK AO2 PK
WND 27036/0433 SLP048 T02001117 $





000
SAUS44 KMAF 270214
MTRGDP
METAR KGDP 270151Z AUTO 25027G35KT 8SM OVC043 22/M13 A2987 RMK AO2
PK WND 27040/0101 SLP036 T02221133 $





000
SAUS44 KMAF 270113
MTRGDP
METAR KGDP 270051Z AUTO 26028G37KT 9SM CLR 24/M11 A2986 RMK AO2 PK
WND 25044/0016 SLP030 T02391111





000
SAUS44 KMAF 270054
MTR6R6
METAR K6R6 270053Z AUTO 15012KT 28/16 A2969 RMK AO1 SLP015 T02830161





000
SAUS44 KMAF 270014 COR
MTRGDP
METAR KGDP 262351Z AUTO 25034G41KT 10SM CLR 26/M09 A2984 RMK AO2 PK
WND 25045/2254 SLP023 T02611094 10289 20256 55019





000
SAUS44 KMAF 270014
MTRGDP
METAR KGDP 262351Z AUTO 25034G41KT 10SM CLR 26/M09 A2984 RMK AO2 PK
WND 25045/2254 SLP023 T02611094 10289 20256 55019





000
SAUS44 KMAF 262254
MTR6R6
METAR K6R6 262253Z AUTO 11007KT 29/16 A2973 RMK AO1 SLP026 T02940161





000
SAUS44 KMAF 262155
MTR6R6
METAR K6R6 262153Z AUTO 14009KT 27/16 A2975 RMK AO1 PK WND
18033/2119 SLP038 T02720161





000
SAUS44 KMAF 262054
MTR6R6
METAR K6R6 262053Z AUTO 12011KT 32/12 A2972 RMK AO1 PK WND
18049/2031 WSHFT 2027 SLP025 T03170122 56029





000
SAUS44 KMAF 261713
MTRGDP
METAR KGDP 261651Z AUTO 24025G39KT 10SM CLR 25/M02 A2999 RMK AO2 PK
WND 25041/1608 SLP064 T02501022





000
SAUS44 KMAF 261514
MTRGDP
METAR KGDP 261451Z AUTO 25021G32KT 10SM CLR 22/M06 A3003 RMK AO2 PK
WND 27033/1430 SLP082 T02221061 50000





000
SAUS44 KMAF 261414
MTRGDP
METAR KGDP 261351Z AUTO 24021G27KT 10SM CLR 21/M07 A3003 RMK AO2 PK
WND 27030/1305 SLP082 T02061072





000
SAUS44 KMAF 261254
MTR6R6
METAR K6R6 261253Z AUTO 24004KT 25/16 A2988 RMK AO1 SLP082 T02500161





000
SAUS44 KMAF 261154
MTR6R6
METAR K6R6 261153Z AUTO 24007KT 24/16 A2987 RMK AO1 SLP077 T02440161
10272 20239 55007





000
SAUS44 KMAF 261114
MTRGDP
METAR KGDP 261051Z AUTO 25023G28KT 10SM CLR 18/M09 A3003 RMK AO2 PK
WND 26028/1049 SLP078 T01831094





000
SAUS44 KMAF 260854
MTR6R6
METAR K6R6 260853Z AUTO 00000KT 25/19 A2989 RMK AO1 SLP083 T02500189
58007





000
SAUS44 KMAF 260654
MTR6R6
METAR K6R6 260653Z AUTO 19006KT 27/21 A2991 RMK AO1 SLP089 T02670211





000
SAUS44 KMAF 260614
MTRGDP
METAR KGDP 260551Z AUTO 26014KT 10SM CLR 22/M14 A3008 RMK AO2 SLP093
T02221139 10300 20222 50004





000
SAUS44 KMAF 260554
MTR6R6
METAR K6R6 260553Z AUTO 16014KT 27/22 A2991 RMK AO1 SLP090 T02670222
10289 20267 403330233 58009





000
SAUS44 KMAF 260513
MTRGDP
METAR KGDP 260451Z AUTO 26016G23KT 9SM OVC036 23/M12 A3009 RMK AO2
SLP097 T02331122





000
SAUS44 KMAF 260314
MTRGDP
METAR KGDP 260251Z AUTO 26013KT 10SM CLR 26/M05 A3007 RMK AO2 SLP092
T02561050 51006





    US Dept of Commerce
    National Oceanic and Atmospheric Administration
    National Weather Service
    1325 East West Highway
    Silver Spring, MD 20910
    Page Author: NWS Internet Services Team
Disclaimer
Information Quality
Credits
Glossary
Privacy Policy
Freedom of Information Act (FOIA)
About Us
Career Opportunities